Main page
METAR-TAF:

METAR-TAF

Airports :

Wattisham, England

RAF Wattisham

latitude: 52-07N, longitude: 000-58E, elevation: 87 m

Current weather observation

The report was made 43 minutes ago, at 10:50 UTC
Wind 14 kt from the East/Northeast
Temperature 12°C
Humidity 47%
Pressure 1031 hPa
Visibility 10 km or more

METAR: EGUW 251050Z AUTO 07014KT 9999 NCD 12/01 Q1031

Time: 11:33 (11:33 UTC)

Forecast

The report was made 22 hours and 15 minutes ago, at 13:18 UTC
Forecast valid from 24 at 15 UTC to 24 at 24 UTC
Wind 10 kt from the East/Northeast
Visibility 10 km or more
Few clouds at a height of 2500 ft

TAF: EGUW 241318Z 2415/2424 06010KT 9999 FEW025

Weather observations and forecasts of more than 4000 airports (METAR and TAF reports).

The available stations are represented by yellow and red dots on the map.

Hover mouse over dot to see the name of the station.

Then click to see weather observations and forecasts.

To change the map : click on the green buttons with a black cross to zoom in, on the green button with a dash to zoom out, or on the green arrows for adjacent maps.


METAR-TAF: